Time;durP1;ratioP1;P1;durP2;ratioP2;P2;SDS_P1;SDS_P2;PMS_P1;PMS_P2;Temp;Humidity;BMP_temperature;BMP_pressure;BME280_temperature;BME280_humidity;BME280_pressure;Samples;Min_cycle;Max_cycle;Signal;HPM_P1;HPM_P2
2021/05/16 00:02:01;;;;;;;4.65;3.30;;;;;;;13.47;63.27;98306.31;4990522;28;20050;-84
2021/05/16 00:04:28;;;;;;;4.43;3.33;;;;;;;13.43;63.51;98300.47;4991364;28;20054;-84
2021/05/16 00:06:55;;;;;;;4.45;3.25;;;;;;;13.41;63.45;98299.78;4992335;28;20076;-84
2021/05/16 00:09:22;;;;;;;4.25;3.30;;;;;;;13.37;63.49;98295.78;4991903;28;20488;-84
2021/05/16 00:11:49;;;;;;;4.15;3.00;;;;;;;13.34;63.44;98300.50;4992312;28;20105;-83
2021/05/16 00:14:15;;;;;;;4.80;3.17;;;;;;;13.29;63.65;98298.28;4991716;28;20054;-84
2021/05/16 00:16:42;;;;;;;3.58;3.28;;;;;;;13.26;63.83;98303.84;4992049;28;20109;-84
2021/05/16 00:19:09;;;;;;;4.75;3.33;;;;;;;13.24;64.01;98305.81;4985922;28;20062;-84
2021/05/16 00:21:36;;;;;;;4.93;3.13;;;;;;;13.21;63.70;98304.28;4971311;28;20054;-84
2021/05/16 00:24:02;;;;;;;3.92;3.53;;;;;;;13.18;63.94;98299.25;4970894;28;20098;-84
2021/05/16 00:26:29;;;;;;;3.88;2.97;;;;;;;13.16;63.99;98298.59;4972635;28;20047;-83
2021/05/16 00:28:56;;;;;;;4.10;3.70;;;;;;;13.14;63.97;98303.16;4987519;28;20079;-83
2021/05/16 00:31:22;;;;;;;5.20;3.90;;;;;;;13.12;63.88;98298.00;4972429;28;20120;-84
2021/05/16 00:33:49;;;;;;;4.32;3.47;;;;;;;13.09;64.07;98298.28;4972317;28;20047;-84
2021/05/16 00:36:15;;;;;;;6.35;4.50;;;;;;;13.07;63.91;98300.25;4973504;28;20051;-84
2021/05/16 00:38:42;;;;;;;4.68;4.03;;;;;;;13.05;64.26;98302.22;4971764;28;20074;-84
2021/05/16 00:41:09;;;;;;;6.43;4.63;;;;;;;13.03;64.54;98299.69;4973233;28;20063;-84
2021/05/16 00:43:35;;;;;;;4.65;4.13;;;;;;;13.02;64.53;98305.13;4971673;28;20113;-84
2021/05/16 00:46:02;;;;;;;5.55;4.68;;;;;;;13.00;64.46;98297.34;4972622;28;20066;-84
2021/05/16 00:48:29;;;;;;;7.82;4.70;;;;;;;13.00;64.68;98299.97;5003678;28;20058;-84
2021/05/16 00:50:55;;;;;;;5.15;4.45;;;;;;;13.01;64.78;98298.19;4975372;28;20508;-84
2021/05/16 00:53:23;;;;;;;5.85;5.07;;;;;;;13.02;64.85;98308.56;4976842;28;20460;-84
2021/05/16 00:55:50;;;;;;;7.90;5.07;;;;;;;13.03;64.83;98298.84;4975808;28;20496;-84
2021/05/16 00:58:17;;;;;;;6.90;5.28;;;;;;;13.05;64.81;98302.22;4975944;28;20059;-84
2021/05/16 01:00:44;;;;;;;7.90;5.57;;;;;;;13.04;64.51;98300.53;4976054;28;20492;-84
2021/05/16 01:03:13;;;;;;;6.78;4.95;;;;;;;13.02;64.63;98305.13;4975673;28;20047;-84
2021/05/16 01:05:44;;;;;;;6.18;5.22;;;;;;;13.01;64.84;98312.19;4975532;28;20058;-84
2021/05/16 01:08:12;;;;;;;5.88;4.68;;;;;;;13.01;64.66;98298.19;4975859;28;20468;-84
2021/05/16 01:10:39;;;;;;;7.70;5.10;;;;;;;12.99;64.95;98308.88;4988629;28;20518;-84
2021/05/16 01:13:09;;;;;;;10.15;5.18;;;;;;;13.00;64.80;98304.41;4993889;28;20054;-84
2021/05/16 01:15:37;;;;;;;6.55;5.15;;;;;;;12.97;64.87;98304.72;5009892;28;20047;-84
2021/05/16 01:18:04;;;;;;;10.25;5.82;;;;;;;12.97;64.83;98305.53;4993942;28;20344;-84
2021/05/16 01:20:35;;;;;;;8.45;5.88;;;;;;;12.94;65.06;98300.53;4995319;28;20073;-84
2021/05/16 01:23:35;;;;;;;8.15;5.40;;;;;;;12.92;65.82;98299.00;4995046;28;20093;-83
2021/05/16 01:26:03;;;;;;;12.20;5.85;;;;;;;12.95;64.70;98296.06;4991500;28;20054;-84
2021/05/16 01:28:29;;;;;;;16.02;6.97;;;;;;;12.94;64.76;98299.69;5009817;28;20164;-84
2021/05/16 01:30:56;;;;;;;10.68;5.60;;;;;;;12.94;64.90;98303.19;4994772;28;20050;-84
2021/05/16 01:33:23;;;;;;;11.18;5.70;;;;;;;12.94;64.68;98299.69;4994681;28;20050;-84
2021/05/16 01:35:49;;;;;;;10.30;5.45;;;;;;;12.93;64.88;98298.03;4994874;28;20065;-84
2021/05/16 01:38:16;;;;;;;10.55;5.97;;;;;;;12.92;64.77;98299.00;4993932;28;20085;-84
2021/05/16 01:40:43;;;;;;;9.85;6.28;;;;;;;12.90;64.95;98299.97;4992380;28;20046;-84
2021/05/16 01:43:10;;;;;;;13.18;6.40;;;;;;;12.90;64.97;98307.06;4977041;28;20065;-84
2021/05/16 01:45:38;;;;;;;12.65;6.13;;;;;;;12.89;65.05;98302.75;4974376;28;20058;-84
2021/05/16 01:48:04;;;;;;;12.02;6.55;;;;;;;12.88;64.95;98301.94;4975780;28;20496;-84
2021/05/16 01:50:34;;;;;;;11.80;6.15;;;;;;;12.87;65.13;98302.88;4975592;28;20051;-84
2021/05/16 01:53:03;;;;;;;14.07;6.43;;;;;;;12.87;64.94;98296.78;4976030;28;20042;-84
2021/05/16 01:55:30;;;;;;;15.10;6.63;;;;;;;12.87;64.92;98297.59;5005923;28;20054;-84
2021/05/16 01:57:57;;;;;;;11.98;6.40;;;;;;;12.87;64.88;98297.59;4976435;28;20488;-84
2021/05/16 02:00:30;;;;;;;13.55;5.47;;;;;;;12.85;65.08;98304.00;4974924;28;20046;-84
2021/05/16 02:02:57;;;;;;;11.35;5.63;;;;;;;12.85;64.83;98296.06;4975039;28;20051;-84
2021/05/16 02:05:24;;;;;;;14.00;6.15;;;;;;;12.84;64.87;98302.31;4974742;28;20059;-84
2021/05/16 02:07:51;;;;;;;12.43;5.70;;;;;;;12.83;64.80;98298.88;4974620;28;20062;-84
2021/05/16 02:10:19;;;;;;;13.57;6.07;;;;;;;12.82;64.87;98297.19;4974587;28;20054;-84
2021/05/16 02:12:46;;;;;;;14.38;6.78;;;;;;;12.81;64.91;98295.53;4975460;28;20054;-84
2021/05/16 02:15:13;;;;;;;14.68;7.00;;;;;;;12.80;64.99;98300.94;4991933;28;20058;-83
2021/05/16 02:17:41;;;;;;;14.70;6.25;;;;;;;12.77;64.96;98296.75;4992674;28;20500;-84
2021/05/16 02:20:11;;;;;;;13.85;6.18;;;;;;;12.74;65.07;98297.88;4993961;28;20054;-83
2021/05/16 02:22:38;;;;;;;16.15;6.60;;;;;;;12.72;64.96;98297.19;4993750;28;20293;-84
2021/05/16 02:25:06;;;;;;;18.00;6.75;;;;;;;12.70;65.23;98291.19;4992267;28;20147;-84
2021/05/16 02:27:34;;;;;;;13.88;5.97;;;;;;;12.69;65.10;98300.09;4994252;28;20057;-83
2021/05/16 02:30:01;;;;;;;16.30;6.57;;;;;;;12.68;65.13;98295.81;4992850;28;20389;-83
2021/05/16 02:32:28;;;;;;;12.90;6.78;;;;;;;12.67;65.34;98298.56;5024975;28;20050;-83
2021/05/16 02:34:54;;;;;;;17.00;6.80;;;;;;;12.66;65.21;98292.44;4994503;28;20054;-83
2021/05/16 02:37:21;;;;;;;13.10;6.28;;;;;;;12.66;65.28;98297.72;4993991;28;20050;-83
2021/05/16 02:39:47;;;;;;;14.55;5.90;;;;;;;12.66;65.42;98299.53;4994143;28;20054;-83
2021/05/16 02:42:14;;;;;;;11.90;6.20;;;;;;;12.67;65.57;98299.38;4994312;28;20057;-84
2021/05/16 02:44:41;;;;;;;11.48;6.38;;;;;;;12.67;65.44;98298.56;4994059;28;20059;-84
2021/05/16 02:47:08;;;;;;;13.18;5.82;;;;;;;12.67;65.47;98294.09;4992563;28;20062;-83
2021/05/16 02:49:34;;;;;;;13.65;6.35;;;;;;;12.67;65.60;98299.38;4991962;28;20046;-83
2021/05/16 02:52:01;;;;;;;13.10;6.05;;;;;;;12.67;65.44;98301.22;5008640;28;20050;-83
2021/05/16 02:54:33;;;;;;;13.15;5.50;;;;;;;12.66;65.44;98295.09;4993525;28;20061;-84
2021/05/16 02:56:59;;;;;;;18.13;6.88;;;;;;;12.65;65.48;98298.72;4993991;28;20054;-83
2021/05/16 02:59:26;;;;;;;12.23;6.63;;;;;;;12.64;65.49;98292.59;5008593;28;20101;-83
2021/05/16 03:01:53;;;;;;;13.73;6.20;;;;;;;12.64;65.47;98299.69;4990335;28;20508;-85
2021/05/16 03:04:20;;;;;;;13.13;5.93;;;;;;;12.62;65.64;98302.47;4992505;28;20050;-83
2021/05/16 03:06:47;;;;;;;10.85;5.32;;;;;;;12.61;65.44;98300.78;5008061;28;20500;-84
2021/05/16 03:09:13;;;;;;;13.07;6.13;;;;;;;12.61;65.56;98302.59;4993312;28;20054;-83
2021/05/16 03:11:40;;;;;;;10.40;5.40;;;;;;;12.61;65.93;98302.59;4989516;28;20050;-84
2021/05/16 03:14:08;;;;;;;13.88;4.97;;;;;;;12.60;65.73;98299.09;4973498;28;20051;-82
2021/05/16 03:16:35;;;;;;;15.40;6.13;;;;;;;12.61;65.88;98299.94;4974120;28;20063;-83
2021/05/16 03:19:03;;;;;;;11.93;5.32;;;;;;;12.61;65.85;98306.06;4973541;28;20047;-83
2021/05/16 03:21:29;;;;;;;9.45;5.25;;;;;;;12.61;65.99;98307.88;4973322;28;20062;-83
2021/05/16 03:23:56;;;;;;;8.23;4.38;;;;;;;12.60;65.67;98304.38;4973129;28;20046;-83
2021/05/16 03:26:24;;;;;;;9.85;4.82;;;;;;;12.60;65.62;98307.03;4988043;28;20059;-84
2021/05/16 03:28:51;;;;;;;9.32;4.47;;;;;;;12.60;65.65;98309.66;4992026;28;20500;-83
2021/05/16 03:31:18;;;;;;;12.57;5.20;;;;;;;12.59;65.74;98300.09;4992445;28;20057;-83
2021/05/16 03:33:44;;;;;;;8.98;4.78;;;;;;;12.59;65.69;98312.44;4988297;28;20412;-83
2021/05/16 03:36:11;;;;;;;13.50;5.75;;;;;;;12.58;65.81;98305.50;4973260;28;20051;-84
2021/05/16 03:38:38;;;;;;;7.40;4.68;;;;;;;12.58;65.87;98303.69;4973385;28;20050;-83
2021/05/16 03:41:04;;;;;;;10.15;4.93;;;;;;;12.59;65.79;98301.88;4973121;28;20057;-83
2021/05/16 03:43:31;;;;;;;11.25;4.90;;;;;;;12.58;66.10;98297.56;4973176;28;20714;-83
2021/05/16 03:45:58;;;;;;;9.45;5.10;;;;;;;12.58;65.80;98302.84;4979076;28;20047;-83
2021/05/16 03:48:24;;;;;;;8.45;4.68;;;;;;;12.56;65.99;98300.34;4992385;28;20054;-84
2021/05/16 03:50:51;;;;;;;5.93;4.05;;;;;;;12.57;65.85;98299.41;5023880;28;20054;-83
2021/05/16 03:53:19;;;;;;;5.82;4.55;;;;;;;12.56;66.15;98303.00;4992168;28;20046;-85
2021/05/16 03:55:45;;;;;;;6.28;4.25;;;;;;;12.55;65.95;98295.19;4992002;28;20054;-83
2021/05/16 03:58:12;;;;;;;7.35;4.25;;;;;;;12.54;66.22;98304.94;4992388;28;20528;-83
2021/05/16 04:00:41;;;;;;;6.15;4.43;;;;;;;12.53;66.24;98305.06;4992044;28;20053;-83
2021/05/16 04:03:08;;;;;;;8.05;4.93;;;;;;;12.53;66.31;98307.72;4981070;28;20066;-83
2021/05/16 04:05:34;;;;;;;8.57;5.18;;;;;;;12.52;66.58;98301.59;4971211;28;20133;-84
2021/05/16 04:08:01;;;;;;;11.82;5.55;;;;;;;12.54;66.53;98312.00;4972778;28;20061;-83
2021/05/16 04:10:27;;;;;;;10.80;5.80;;;;;;;12.55;66.54;98303.13;4987456;28;20456;-83
2021/05/16 04:12:54;;;;;;;11.10;6.10;;;;;;;12.55;66.84;98308.41;4971467;28;20412;-83
2021/05/16 04:15:21;;;;;;;11.15;7.55;;;;;;;12.55;66.57;98309.25;4972208;28;20061;-83
2021/05/16 04:17:47;;;;;;;12.60;6.85;;;;;;;12.56;66.72;98310.91;4972545;28;20464;-83
2021/05/16 04:20:14;;;;;;;11.40;7.00;;;;;;;12.56;66.80;98305.63;4973813;28;20451;-83
2021/05/16 04:22:41;;;;;;;13.50;5.88;;;;;;;12.57;66.74;98309.97;4971466;28;20062;-84
2021/05/16 04:25:08;;;;;;;11.65;5.85;;;;;;;12.56;66.76;98307.44;4972180;28;20058;-84
2021/05/16 04:27:35;;;;;;;10.68;6.20;;;;;;;12.56;66.71;98308.25;4971195;28;20133;-83
2021/05/16 04:30:02;;;;;;;14.60;6.95;;;;;;;12.56;66.74;98310.91;4972771;28;20051;-83
2021/05/16 04:32:29;;;;;;;12.43;6.63;;;;;;;12.58;67.26;98311.63;5003780;28;20090;-83
2021/05/16 04:34:56;;;;;;;12.90;6.47;;;;;;;12.58;67.07;98311.63;4972737;28;20054;-84
2021/05/16 04:37:22;;;;;;;15.95;6.65;;;;;;;12.61;67.03;98318.44;4971547;28;20062;-83
2021/05/16 04:39:49;;;;;;;15.88;6.95;;;;;;;12.62;66.94;98317.44;4970898;28;20066;-83
2021/05/16 04:42:16;;;;;;;17.33;6.80;;;;;;;12.62;67.04;98318.28;4972180;28;20054;-83
2021/05/16 04:44:42;;;;;;;18.65;7.15;;;;;;;12.65;66.95;98319.81;4972152;28;20047;-83
2021/05/16 04:47:09;;;;;;;13.98;6.30;;;;;;;12.64;66.95;98315.53;4971189;28;20059;-83
2021/05/16 04:49:36;;;;;;;17.88;7.50;;;;;;;12.66;67.12;98320.63;4970963;28;20055;-83
2021/05/16 04:52:04;;;;;;;17.52;7.03;;;;;;;12.67;67.00;98317.06;4972738;28;20106;-83
2021/05/16 04:54:31;;;;;;;19.30;6.85;;;;;;;12.67;67.14;98324.97;4989926;28;20058;-83
2021/05/16 04:56:57;;;;;;;15.07;6.63;;;;;;;12.67;67.02;98322.34;4990149;28;20105;-83
2021/05/16 04:59:24;;;;;;;17.75;6.63;;;;;;;12.67;67.00;98330.25;4987062;28;20055;-83
2021/05/16 05:01:50;;;;;;;17.33;7.05;;;;;;;12.66;67.03;98328.56;4972037;28;20070;-82
2021/05/16 05:04:17;;;;;;;21.05;6.55;;;;;;;12.67;67.08;98324.97;4971596;28;20054;-83
2021/05/16 05:06:44;;;;;;;16.48;7.13;;;;;;;12.67;67.05;98331.06;4986809;28;20046;-83
2021/05/16 05:09:10;;;;;;;19.85;7.68;;;;;;;12.69;67.10;98334.44;4973008;28;20496;-82
2021/05/16 05:11:37;;;;;;;15.95;7.25;;;;;;;12.71;67.06;98329.00;4979904;28;20051;-83
2021/05/16 05:14:04;;;;;;;15.15;6.47;;;;;;;12.71;67.11;98334.28;4989834;28;20053;-83
2021/05/16 05:16:30;;;;;;;21.08;7.03;;;;;;;12.70;67.22;98328.16;4991520;28;20062;-82
2021/05/16 05:18:57;;;;;;;14.57;6.28;;;;;;;12.70;67.22;98330.81;4990459;28;20054;-82
2021/05/16 05:21:24;;;;;;;14.68;6.05;;;;;;;12.69;67.14;98334.44;4991465;28;20061;-83
2021/05/16 05:23:51;;;;;;;14.23;6.72;;;;;;;12.68;67.31;98327.47;5006106;28;20419;-83
2021/05/16 05:26:17;;;;;;;13.23;5.82;;;;;;;12.66;67.20;98342.59;4989851;28;20380;-83
2021/05/16 05:28:44;;;;;;;20.75;5.32;;;;;;;12.64;67.31;98341.91;4990968;28;20225;-83
2021/05/16 05:31:11;;;;;;;16.95;5.70;;;;;;;12.62;67.14;98344.69;5006187;28;20051;-83
2021/05/16 05:33:37;;;;;;;15.57;5.68;;;;;;;12.59;67.30;98347.59;4991177;28;20054;-83
2021/05/16 05:36:04;;;;;;;18.40;5.63;;;;;;;12.57;67.41;98344.28;4992439;28;20057;-84
2021/05/16 05:38:31;;;;;;;15.18;5.22;;;;;;;12.56;67.32;98341.75;4994710;28;20053;-83
2021/05/16 05:40:57;;;;;;;16.75;5.43;;;;;;;12.55;67.70;98345.34;4993603;28;20057;-83
2021/05/16 05:43:24;;;;;;;12.00;4.75;;;;;;;12.54;67.54;98339.25;4993078;28;20440;-83
2021/05/16 05:45:51;;;;;;;13.05;5.63;;;;;;;12.54;67.58;98347.16;4992909;28;20095;-82
2021/05/16 05:48:17;;;;;;;12.82;5.72;;;;;;;12.52;67.53;98343.81;4975522;28;20055;-83
2021/05/16 05:50:44;;;;;;;20.83;5.90;;;;;;;12.50;67.53;98343.13;4975142;28;20058;-83
2021/05/16 05:53:10;;;;;;;16.25;5.35;;;;;;;12.50;67.52;98351.06;4989623;28;20460;-83
2021/05/16 05:55:37;;;;;;;15.27;4.97;;;;;;;12.49;67.51;98349.38;4975011;28;20055;-82
2021/05/16 05:58:04;;;;;;;17.52;6.03;;;;;;;12.49;67.68;98352.03;4975161;28;20519;-84
2021/05/16 06:00:30;;;;;;;22.20;5.95;;;;;;;12.50;67.67;98361.59;4974665;28;20050;-83
2021/05/16 06:02:58;;;;;;;22.08;6.13;;;;;;;12.51;67.71;98358.00;4973419;28;20110;-83
2021/05/16 06:05:26;;;;;;;16.52;5.47;;;;;;;12.50;67.75;98357.19;4975054;28;20062;-83
2021/05/16 06:07:57;;;;;;;18.98;5.72;;;;;;;12.51;68.32;98353.56;4975047;28;20512;-83
2021/05/16 06:10:24;;;;;;;17.40;5.55;;;;;;;12.55;67.93;98353.28;4973964;28;20046;-84
2021/05/16 06:12:52;;;;;;;19.13;6.53;;;;;;;12.58;68.13;98353.84;4974696;28;20551;-83
2021/05/16 06:15:19;;;;;;;14.10;5.75;;;;;;;12.61;67.95;98347.47;4974762;28;20062;-83
2021/05/16 06:17:46;;;;;;;18.70;5.55;;;;;;;12.64;68.03;98352.47;4974454;28;20086;-84
2021/05/16 06:20:14;;;;;;;24.67;6.50;;;;;;;12.67;67.95;98349.53;4974609;28;20105;-84
2021/05/16 06:22:40;;;;;;;18.67;6.03;;;;;;;12.70;67.91;98356.34;4975127;28;20062;-84
2021/05/16 06:25:07;;;;;;;22.65;6.65;;;;;;;12.73;67.85;98362.22;4974553;28;20047;-84
2021/05/16 06:27:34;;;;;;;19.90;5.65;;;;;;;12.76;67.71;98361.94;5005677;28;20055;-84
2021/05/16 06:30:03;;;;;;;20.65;5.75;;;;;;;12.79;67.58;98365.28;4974182;28;20584;-83
2021/05/16 06:32:30;;;;;;;16.75;5.70;;;;;;;12.81;67.39;98368.59;4974433;28;20062;-84
2021/05/16 06:34:56;;;;;;;16.90;5.53;;;;;;;12.81;67.45;98363.31;4975614;28;20050;-85
2021/05/16 06:37:23;;;;;;;20.30;5.43;;;;;;;12.81;67.38;98368.59;4974324;28;20054;-83
2021/05/16 06:39:50;;;;;;;22.85;5.68;;;;;;;12.83;67.53;98362.25;4974355;28;20054;-83
2021/05/16 06:42:17;;;;;;;21.95;5.68;;;;;;;12.84;67.43;98360.41;4974557;28;20089;-83
2021/05/16 06:44:44;;;;;;;23.85;5.93;;;;;;;12.84;67.81;98363.91;4974139;28;20054;-83
2021/05/16 06:47:11;;;;;;;26.25;5.88;;;;;;;12.85;67.34;98370.84;4971819;28;20062;-83
2021/05/16 06:49:37;;;;;;;25.45;5.43;;;;;;;12.88;67.76;98367.09;4974175;28;20058;-84
2021/05/16 06:52:05;;;;;;;24.98;6.15;;;;;;;12.90;67.79;98366.00;4989961;28;20058;-84
2021/05/16 06:54:31;;;;;;;23.45;6.20;;;;;;;12.94;67.73;98368.38;4972679;28;20050;-84
2021/05/16 06:56:58;;;;;;;19.58;6.47;;;;;;;12.96;67.48;98369.91;5006495;28;20053;-83
2021/05/16 06:59:24;;;;;;;18.48;5.88;;;;;;;12.96;67.31;98369.91;5008163;28;20050;-84
2021/05/16 07:01:51;;;;;;;16.67;5.43;;;;;;;12.99;67.11;98366.13;4991966;28;20054;-84
2021/05/16 07:04:18;;;;;;;20.23;6.57;;;;;;;13.00;67.24;98367.81;5007982;28;20496;-84
2021/05/16 07:06:45;;;;;;;21.30;5.88;;;;;;;13.02;67.20;98373.78;4992006;28;20050;-84
2021/05/16 07:09:11;;;;;;;17.02;5.78;;;;;;;13.05;66.94;98372.69;4993156;28;20057;-84
2021/05/16 07:11:38;;;;;;;17.20;5.75;;;;;;;13.07;67.26;98376.84;4990524;28;20046;-84
2021/05/16 07:14:04;;;;;;;21.88;5.90;;;;;;;13.09;67.14;98372.25;4973426;28;20050;-83
2021/05/16 07:16:31;;;;;;;17.58;5.53;;;;;;;13.12;67.04;98368.53;4973576;28;20077;-84
2021/05/16 07:18:57;;;;;;;19.48;6.30;;;;;;;13.14;67.08;98371.84;4974143;28;20077;-83
2021/05/16 07:21:25;;;;;;;22.55;5.88;;;;;;;13.16;66.85;98375.22;4972277;28;20062;-84
2021/05/16 07:23:51;;;;;;;19.70;6.03;;;;;;;13.20;66.93;98373.13;4973342;28;20130;-83
2021/05/16 07:26:18;;;;;;;16.85;6.03;;;;;;;13.21;66.70;98374.78;4973772;28;20063;-84
2021/05/16 07:28:45;;;;;;;22.65;7.10;;;;;;;13.22;66.83;98368.50;5006051;28;20055;-83
2021/05/16 07:31:12;;;;;;;21.20;7.07;;;;;;;13.22;66.67;98376.44;4972963;28;20137;-84
2021/05/16 07:33:40;;;;;;;22.80;6.68;;;;;;;13.22;66.85;98379.94;4973561;28;20069;-84
2021/05/16 07:36:07;;;;;;;23.13;6.65;;;;;;;13.24;66.84;98379.78;4973511;28;20051;-84
2021/05/16 07:38:34;;;;;;;18.65;6.43;;;;;;;13.25;66.85;98384.94;4973422;28;20055;-83
2021/05/16 07:41:01;;;;;;;24.25;7.18;;;;;;;13.27;66.96;98382.16;4973120;28;20177;-84
2021/05/16 07:43:28;;;;;;;21.85;6.05;;;;;;;13.28;66.79;98381.19;4988116;28;20058;-84
2021/05/16 07:45:55;;;;;;;18.17;6.35;;;;;;;13.31;66.84;98380.06;4974274;28;20058;-83
2021/05/16 07:48:28;;;;;;;18.35;6.07;;;;;;;13.32;66.64;98382.56;4973262;28;20536;-83
2021/05/16 07:50:57;;;;;;;19.17;7.03;;;;;;;13.34;66.54;98391.19;4973535;28;20065;-84
2021/05/16 07:53:24;;;;;;;19.92;6.82;;;;;;;13.35;66.36;98384.91;4973900;28;20054;-84
2021/05/16 07:55:51;;;;;;;16.90;6.45;;;;;;;13.37;66.79;98390.06;4992040;28;20050;-84
2021/05/16 07:58:18;;;;;;;18.02;6.47;;;;;;;13.38;66.74;98395.22;4991936;28;20050;-84
2021/05/16 08:00:45;;;;;;;22.10;6.88;;;;;;;13.40;66.78;98385.34;4991055;28;20141;-83
2021/05/16 08:03:12;;;;;;;16.27;5.93;;;;;;;13.43;66.52;98381.59;4990740;28;20046;-83
2021/05/16 08:05:39;;;;;;;18.65;6.53;;;;;;;13.46;66.67;98383.94;4992432;28;20053;-84
2021/05/16 08:08:05;;;;;;;21.15;6.82;;;;;;;13.50;66.65;98389.84;4992503;28;20058;-84
2021/05/16 08:10:32;;;;;;;18.65;6.50;;;;;;;13.53;66.74;98387.72;4991932;28;20443;-83
2021/05/16 08:12:59;;;;;;;19.20;7.00;;;;;;;13.56;66.51;98391.91;4992103;28;20061;-84
2021/05/16 08:15:26;;;;;;;15.27;6.13;;;;;;;13.59;66.38;98396.06;4992827;28;20050;-83
2021/05/16 08:17:53;;;;;;;15.55;5.95;;;;;;;13.59;66.33;98396.91;4991074;28;20423;-85
2021/05/16 08:20:19;;;;;;;22.92;8.20;;;;;;;13.59;66.26;98393.41;4992914;28;20054;-84
2021/05/16 08:22:46;;;;;;;15.77;6.20;;;;;;;13.61;66.30;98386.19;5024102;28;20128;-84
2021/05/16 08:25:14;;;;;;;20.23;6.70;;;;;;;13.63;66.28;98398.31;4993162;28;20081;-84
2021/05/16 08:27:41;;;;;;;22.20;7.72;;;;;;;13.65;66.53;98393.69;4993046;28;20058;-84
2021/05/16 08:30:09;;;;;;;21.30;7.28;;;;;;;13.66;66.59;98392.75;4992412;28;20069;-84
2021/05/16 08:32:36;;;;;;;15.98;6.63;;;;;;;13.71;66.35;98392.28;4977714;28;20062;-84
2021/05/16 08:35:04;;;;;;;21.38;6.85;;;;;;;13.75;66.42;98392.88;4972292;28;20053;-85
2021/05/16 08:37:31;;;;;;;17.90;7.55;;;;;;;13.80;66.34;98393.28;4971151;28;20062;-84
2021/05/16 08:39:57;;;;;;;19.33;7.22;;;;;;;13.86;66.86;98395.34;4971300;28;20058;-85
2021/05/16 08:42:26;;;;;;;16.77;7.30;;;;;;;13.92;66.43;98397.44;4987885;28;20062;-85
2021/05/16 08:44:52;;;;;;;14.30;6.65;;;;;;;14.01;66.35;98392.22;4973911;28;20055;-83
2021/05/16 08:47:19;;;;;;;14.88;6.85;;;;;;;14.08;66.16;98398.63;4992345;28;20069;-84
2021/05/16 08:49:46;;;;;;;16.20;7.90;;;;;;;14.14;65.90;98398.06;4991944;28;20492;-84
2021/05/16 08:52:14;;;;;;;23.27;7.78;;;;;;;14.18;65.52;98407.38;4993136;28;20093;-84
2021/05/16 08:54:41;;;;;;;16.70;7.32;;;;;;;14.22;65.15;98404.44;4991807;28;20050;-85
2021/05/16 08:57:07;;;;;;;19.90;7.20;;;;;;;14.22;65.14;98402.63;4991906;28;20054;-84
2021/05/16 08:59:34;;;;;;;21.52;8.02;;;;;;;14.24;65.16;98410.44;4990094;28;20050;-84
2021/05/16 09:02:01;;;;;;;21.23;8.07;;;;;;;14.26;64.94;98411.09;4991123;28;20405;-84
2021/05/16 09:04:35;;;;;;;20.05;8.00;;;;;;;14.26;64.96;98411.09;4991822;28;20117;-83
2021/05/16 09:07:03;;;;;;;16.65;8.02;;;;;;;14.29;64.89;98416.13;4990563;28;20057;-85
2021/05/16 09:09:34;;;;;;;22.20;7.90;;;;;;;14.31;65.14;98417.63;4993170;28;20058;-84
2021/05/16 09:12:13;;;;;;;25.27;8.75;;;;;;;14.34;65.27;98411.22;4993655;28;20081;-84
2021/05/16 09:14:59;;;;;;;23.08;8.60;;;;;;;14.37;64.79;98410.09;4986380;28;20054;-84
2021/05/16 09:17:35;;;;;;;16.92;7.75;;;;;;;14.48;65.01;98419.66;4975769;28;20051;-84
2021/05/16 09:20:23;;;;;;;24.25;8.20;;;;;;;14.52;65.00;98421.03;4980817;28;20503;-84
2021/05/16 09:22:51;;;;;;;16.45;7.40;;;;;;;14.62;64.33;98411.25;4993694;28;20062;-84
2021/05/16 09:25:19;;;;;;;18.52;6.90;;;;;;;14.66;64.41;98417.88;4994927;28;20676;-84
2021/05/16 09:27:55;;;;;;;19.67;6.65;;;;;;;14.70;64.07;98410.50;4993514;28;20058;-84
2021/05/16 09:30:23;;;;;;;22.35;7.07;;;;;;;14.79;64.60;98408.81;4974470;28;20509;-83
2021/05/16 09:32:50;;;;;;;14.68;6.60;;;;;;;14.91;65.46;98398.84;4974293;28;20058;-84
2021/05/16 09:35:17;;;;;;;18.02;6.50;;;;;;;15.05;64.97;98405.44;4974037;28;20101;-84
2021/05/16 09:37:58;;;;;;;22.77;7.07;;;;;;;15.20;63.36;98409.25;4975977;28;20054;-84
2021/05/16 09:40:26;;;;;;;19.13;6.35;;;;;;;15.40;63.82;98411.72;4975390;28;20059;-84
2021/05/16 09:43:25;;;;;;;18.30;5.93;;;;;;;15.53;60.88;98413.16;4979566;28;20058;-84
2021/05/16 09:45:53;;;;;;;19.23;5.95;;;;;;;15.68;62.47;98406.34;4993236;28;20058;-85
2021/05/16 09:48:41;;;;;;;15.30;5.68;;;;;;;15.75;61.75;98403.91;4994516;28;20054;-84
2021/05/16 09:51:20;;;;;;;15.75;5.80;;;;;;;15.87;61.64;98405.31;4993710;28;20050;-84
2021/05/16 09:54:03;;;;;;;15.65;6.05;;;;;;;15.97;59.98;98410.56;4993746;28;20526;-83
2021/05/16 09:56:33;;;;;;;14.95;5.95;;;;;;;16.05;60.38;98399.16;4994601;28;20070;-83
2021/05/16 09:59:02;;;;;;;14.43;5.93;;;;;;;16.11;60.69;98410.97;4977450;28;20054;-84
2021/05/16 10:01:30;;;;;;;13.02;5.35;;;;;;;16.13;60.36;98407.19;4975047;28;20058;-84
2021/05/16 10:03:59;;;;;;;18.65;5.78;;;;;;;16.17;59.68;98393.56;4973447;28;20055;-83
2021/05/16 10:06:26;;;;;;;17.30;5.70;;;;;;;16.20;60.90;98406.53;4974793;28;20047;-84
2021/05/16 10:08:54;;;;;;;14.07;5.32;;;;;;;16.26;61.11;98405.91;4974794;28;20496;-84
2021/05/16 10:11:30;;;;;;;13.40;5.10;;;;;;;16.31;60.31;98408.09;4975668;28;20106;-84
2021/05/16 10:14:11;;;;;;;18.60;5.25;;;;;;;16.33;58.93;98404.28;4991841;28;20064;-83
2021/05/16 10:16:43;;;;;;;14.52;5.18;;;;;;;16.33;58.25;98414.91;5025633;28;20539;-84
2021/05/16 10:19:16;;;;;;;17.73;5.85;;;;;;;16.26;59.31;98408.56;4992828;28;20061;-84
2021/05/16 10:21:43;;;;;;;14.70;4.88;;;;;;;16.21;59.17;98403.72;4993497;28;20061;-84
2021/05/16 10:24:14;;;;;;;19.98;5.68;;;;;;;16.16;59.31;98416.66;4993074;28;20062;-84
2021/05/16 10:26:42;;;;;;;14.68;4.50;;;;;;;16.16;59.85;98414.00;4988952;28;20141;-84
2021/05/16 10:29:15;;;;;;;17.52;5.03;;;;;;;16.13;59.35;98409.81;4974474;28;20050;-84
2021/05/16 10:31:42;;;;;;;;;;;;;;;16.17;60.03;98406.84;4974911;28;20050;-84
2021/05/16 10:34:27;;;;;;;19.40;5.18;;;;;;;16.17;58.45;98407.69;4974277;28;19926;-84
2021/05/16 10:37:02;;;;;;;15.15;5.07;;;;;;;16.14;57.84;98408.00;4974643;28;20058;-84
2021/05/16 10:39:38;;;;;;;15.00;5.15;;;;;;;16.08;57.93;98396.19;4974781;28;20111;-84
2021/05/16 10:42:24;;;;;;;12.65;4.47;;;;;;;16.05;58.31;98395.66;4988201;28;20061;-84
2021/05/16 10:45:18;;;;;;;17.38;5.18;;;;;;;16.02;58.70;98397.66;4993579;28;20050;-85
2021/05/16 10:47:50;;;;;;;15.57;4.75;;;;;;;16.07;59.33;98404.31;4993766;28;20058;-84
2021/05/16 10:50:23;;;;;;;10.07;4.30;;;;;;;16.17;59.46;98388.25;4992194;28;20063;-84
2021/05/16 10:52:58;;;;;;;16.50;4.45;;;;;;;16.48;61.08;98387.75;4993634;28;20068;-84
2021/05/16 10:55:29;;;;;;;13.73;5.13;;;;;;;16.98;62.77;98379.94;4987644;28;20055;-84
2021/05/16 10:57:57;;;;;;;10.00;4.43;;;;;;;17.55;61.99;98371.22;4983114;28;20061;-84
2021/05/16 11:00:25;;;;;;;16.05;5.38;;;;;;;18.20;61.63;98378.41;4993113;28;20057;-84
2021/05/16 11:03:10;;;;;;;12.45;4.15;;;;;;;18.87;59.37;98374.47;5008274;28;20053;-84
2021/05/16 11:05:40;;;;;;;8.23;3.80;;;;;;;19.53;57.85;98367.03;4992985;28;20046;-84
2021/05/16 11:08:08;;;;;;;15.15;4.80;;;;;;;20.08;57.06;98372.22;4993104;28;20065;-84
2021/05/16 11:10:39;;;;;;;12.32;4.30;;;;;;;20.56;55.44;98373.69;4992971;28;20526;-85
2021/05/16 11:13:17;;;;;;;12.80;4.25;;;;;;;20.95;54.40;98369.84;4978311;28;20467;-84
2021/05/16 11:15:51;;;;;;;10.38;3.78;;;;;;;21.27;51.87;98363.34;4972455;28;20050;-84
2021/05/16 11:18:22;;;;;;;9.75;4.03;;;;;;;21.48;52.65;98363.31;4973514;28;20073;-84
2021/05/16 11:20:59;;;;;;;9.05;3.30;;;;;;;21.52;49.13;98370.97;4974255;28;20051;-84
2021/05/16 11:23:31;;;;;;;14.98;4.20;;;;;;;21.44;48.97;98362.06;4973764;28;20105;-85
2021/05/16 11:26:02;;;;;;;13.10;3.47;;;;;;;21.29;49.08;98358.59;4972411;28;20049;-84
2021/05/16 11:28:31;;;;;;;11.55;2.92;;;;;;;21.07;49.48;98361.28;4973370;28;20050;-84
2021/05/16 11:30:59;;;;;;;14.55;3.55;;;;;;;20.95;50.33;98356.47;4973470;28;20059;-84
2021/05/16 11:33:30;;;;;;;12.52;3.38;;;;;;;20.96;51.43;98358.09;4992357;28;20051;-85